Time;durP1;ratioP1;P1;durP2;ratioP2;P2;SDS_P1;SDS_P2;PMS_P1;PMS_P2;Temp;Humidity;BMP_temperature;BMP_pressure;BME280_temperature;BME280_humidity;BME280_pressure;Samples;Min_cycle;Max_cycle;Signal;HPM_P1;HPM_P2
2021/08/27 00:00:57;;;;;;;1999.90;999.90;;;14.30;99.90;;;;;;5148023;22;20226;-87
2021/08/27 00:03:33;;;;;;;1999.90;999.90;;;14.30;99.90;;;;;;5064978;28;20187;-87
2021/08/27 00:06:05;;;;;;;1999.90;999.90;;;14.40;99.90;;;;;;5065321;28;20416;-87
2021/08/27 00:08:44;;;;;;;1999.90;999.90;;;14.40;99.90;;;;;;5062668;28;20518;-87
2021/08/27 00:11:22;;;;;;;1999.90;999.90;;;14.30;99.90;;;;;;5061913;28;20383;-87
2021/08/27 00:14:15;;;;;;;;;;;;;;;;;;;;;
2021/08/27 00:16:41;;;;;;;1999.90;999.90;;;14.40;99.90;;;;;;5036715;28;20447;-85
2021/08/27 00:19:06;;;;;;;1999.90;999.90;;;14.20;99.90;;;;;;5035334;28;20502;-86
2021/08/27 00:21:45;;;;;;;1999.90;999.90;;;14.10;99.90;;;;;;5053081;28;20699;-86
2021/08/27 00:24:30;;;;;;;1999.90;999.90;;;14.00;99.90;;;;;;5035935;28;20472;-86
2021/08/27 00:27:29;;;;;;;1999.90;999.90;;;14.10;99.90;;;;;;5053707;28;20441;-87
2021/08/27 00:30:04;;;;;;;1999.90;999.90;;;14.10;99.90;;;;;;5027092;28;20973;-87
2021/08/27 00:36:35;;;;;;;1999.90;999.90;;;14.10;99.90;;;;;;4991663;28;20446;-87
2021/08/27 00:39:16;;;;;;;;;;;;;;;;;;;;;
2021/08/27 00:42:02;;;;;;;1999.90;999.90;;;14.10;99.90;;;;;;4992340;28;20374;-87
2021/08/27 00:44:38;;;;;;;1999.90;999.90;;;14.30;99.90;;;;;;4991523;28;20402;-87
2021/08/27 00:47:08;;;;;;;1999.90;999.90;;;14.30;99.90;;;;;;5011212;28;20938;-87
2021/08/27 00:49:40;;;;;;;1999.90;999.90;;;14.20;99.90;;;;;;5034928;28;20847;-87
2021/08/27 00:52:34;;;;;;;1999.90;999.90;;;14.10;99.90;;;;;;5035218;28;20442;-87
2021/08/27 00:55:06;;;;;;;1999.90;999.90;;;14.20;99.90;;;;;;5051939;28;20818;-87
2021/08/27 00:58:23;;;;;;;1999.90;999.90;;;14.30;99.90;;;;;;5053062;28;20414;-87
2021/08/27 01:01:14;;;;;;;1999.90;999.90;;;14.40;99.90;;;;;;5004510;28;20422;-88
2021/08/27 01:04:21;;;;;;;;;;;;;;;;;;;;;
2021/08/27 01:10:38;;;;;;;;;;;;;;;;;;;;;
2021/08/27 01:13:32;;;;;;;1999.90;999.90;;;14.30;99.90;;;;;;4991678;28;20959;-87
2021/08/27 01:19:59;;;;;;;1999.90;999.90;;;14.40;99.90;;;;;;5031317;28;20399;-87
2021/08/27 01:22:55;;;;;;;1999.90;999.90;;;14.40;99.90;;;;;;5031349;28;20404;-87
2021/08/27 01:26:09;;;;;;;1999.90;999.90;;;14.40;99.90;;;;;;5051139;28;20379;-87
2021/08/27 01:29:13;;;;;;;1999.90;999.90;;;14.50;99.90;;;;;;5018504;28;20449;-87
2021/08/27 01:32:19;;;;;;;1999.90;999.90;;;14.50;99.90;;;;;;5035977;28;20910;-87
2021/08/27 01:35:13;;;;;;;1999.90;999.90;;;14.50;99.90;;;;;;5057365;28;20391;-87
2021/08/27 01:38:25;;;;;;;;;;;;;;;;;;;;;
2021/08/27 01:41:18;;;;;;;1999.90;999.90;;;14.40;99.90;;;;;;4975446;28;20398;-87
2021/08/27 01:44:21;;;;;;;1999.90;999.90;;;14.40;99.90;;;;;;4975751;28;20433;-87
2021/08/27 01:50:21;;;;;;;1999.90;999.90;;;14.40;99.90;;;;;;4974730;28;20402;-87
2021/08/27 01:53:36;;;;;;;1999.90;999.90;;;14.30;99.90;;;;;;5033129;28;20845;-87
2021/08/27 01:56:09;;;;;;;1999.90;999.90;;;14.30;99.90;;;;;;5036705;28;20447;-87
2021/08/27 02:02:16;;;;;;;1999.90;999.90;;;14.30;99.90;;;;;;4994141;28;20479;-87
2021/08/27 02:05:12;;;;;;;1999.90;999.90;;;14.30;99.90;;;;;;4951656;28;20422;-88
2021/08/27 02:08:32;;;;;;;1999.90;999.90;;;14.30;99.90;;;;;;5007936;28;20993;-88
2021/08/27 02:11:30;;;;;;;1999.90;999.90;;;14.40;99.90;;;;;;5017874;28;20946;-88
2021/08/27 02:18:09;;;;;;;1999.90;999.90;;;14.30;99.90;;;;;;4987100;22;20561;-88
2021/08/27 02:21:04;;;;;;;1999.90;999.90;;;14.20;99.90;;;;;;5044830;28;20775;-88
2021/08/27 02:27:33;;;;;;;1999.90;999.90;;;14.20;99.90;;;;;;5051924;28;21042;-88
2021/08/27 02:30:26;;;;;;;1999.90;999.90;;;14.20;99.90;;;;;;5057320;28;20390;-88
2021/08/27 02:33:03;;;;;;;1999.90;999.90;;;14.30;99.90;;;;;;5057194;28;20402;-88
2021/08/27 02:38:48;;;;;;;1999.90;999.90;;;14.10;99.90;;;;;;5060678;28;20505;-88
2021/08/27 02:41:55;;;;;;;1999.90;999.90;;;14.00;99.90;;;;;;4958324;28;20472;-88
2021/08/27 02:44:39;;;;;;;1999.90;999.90;;;14.00;99.90;;;;;;4977148;28;20398;-88
2021/08/27 02:47:35;;;;;;;1999.90;999.90;;;14.00;99.90;;;;;;4977131;28;20985;-88
2021/08/27 02:50:07;;;;;;;1999.90;999.90;;;14.00;99.90;;;;;;4977203;28;20943;-88
2021/08/27 02:53:39;;;;;;;1999.90;999.90;;;14.10;99.90;;;;;;4993796;28;20739;-88
2021/08/27 02:56:39;;;;;;;1999.90;999.90;;;14.00;99.90;;;;;;4938094;29;20467;-88
2021/08/27 02:59:22;;;;;;;1999.90;999.90;;;13.90;99.90;;;;;;4949486;28;20422;-88
2021/08/27 03:02:14;;;;;;;1999.90;999.90;;;13.80;99.90;;;;;;5039795;28;20901;-88
2021/08/27 03:05:16;;;;;;;1999.90;999.90;;;13.90;99.90;;;;;;5057231;28;20444;-88
2021/08/27 03:08:43;;;;;;;1999.90;999.90;;;13.90;99.90;;;;;;5013564;23;20565;-88
2021/08/27 03:12:55;;;;;;;1999.90;999.90;;;14.00;99.90;;;;;;4965432;28;20434;-88
2021/08/27 03:15:56;;;;;;;;;;;;;;;;;;;;;
2021/08/27 03:19:26;;;;;;;1999.90;999.90;;;14.10;99.90;;;;;;4999706;28;20507;-88
2021/08/27 03:22:43;;;;;;;1999.90;999.90;;;14.10;99.90;;;;;;5006768;28;20427;-88
2021/08/27 03:28:32;;;;;;;1999.90;999.90;;;14.10;99.90;;;;;;4909538;29;20479;-88
2021/08/27 03:31:20;;;;;;;;;;;;;;;;;;;;;
2021/08/27 03:33:49;;;;;;;1999.90;999.90;;;14.10;99.90;;;;;;4935197;29;20419;-89
2021/08/27 03:36:18;;;;;;;1999.90;999.90;;;14.10;99.90;;;;;;4934682;29;20480;-88
2021/08/27 03:39:00;;;;;;;1999.90;999.90;;;14.20;99.90;;;;;;4933905;29;20481;-88
2021/08/27 03:45:53;;;;;;;1999.90;999.90;;;14.20;99.90;;;;;;4840728;29;20420;-88
2021/08/27 03:48:50;;;;;;;1999.90;999.90;;;14.10;99.90;;;;;;4854153;29;20441;-89
2021/08/27 03:55:24;;;;;;;1999.90;999.90;;;14.10;99.90;;;;;;4896617;29;20408;-88
2021/08/27 03:58:44;;;;;;;1999.90;999.90;;;14.10;99.90;;;;;;4858420;29;20454;-89
2021/08/27 04:04:50;;;;;;;;;;;;;;;;;;;;;
2021/08/27 04:15:41;;;;;;;;;;;;;;;;;;;;;
2021/08/27 04:29:02;;;;;;;1999.90;999.90;;;14.30;99.90;;;;;;5482173;22;20882;-89
2021/08/27 04:35:10;;;;;;;1999.90;999.90;;;14.20;99.90;;;;;;4972142;28;20413;-89
2021/08/27 06:03:03;;;;;;;1999.90;999.90;;;14.40;99.90;;;;;;5058662;28;20497;-83
2021/08/27 06:05:29;;;;;;;1999.90;999.90;;;14.40;99.90;;;;;;5042143;28;20403;-83
2021/08/27 06:08:00;;;;;;;1999.90;999.90;;;14.40;99.90;;;;;;5071558;28;20425;-83
2021/08/27 06:10:26;;;;;;;1999.90;999.90;;;14.50;99.90;;;;;;5061605;28;20417;-82
2021/08/27 06:12:51;;;;;;;1999.90;999.90;;;14.60;99.90;;;;;;5079006;28;20394;-83
2021/08/27 06:15:20;;;;;;;1999.90;999.90;;;14.60;99.90;;;;;;5079666;28;20603;-82
2021/08/27 06:17:45;;;;;;;1999.90;999.90;;;14.60;99.90;;;;;;5079096;28;20180;-83
2021/08/27 06:20:15;;;;;;;1999.90;999.90;;;14.70;99.90;;;;;;5079375;28;20406;-83
2021/08/27 06:22:40;;;;;;;1999.90;999.90;;;14.70;99.90;;;;;;5061826;28;20163;-82
2021/08/27 06:25:10;;;;;;;1999.90;999.90;;;14.70;99.90;;;;;;5080995;28;20936;-84
2021/08/27 06:27:41;;;;;;;1999.90;999.90;;;14.80;99.90;;;;;;5080943;28;20184;-84
2021/08/27 06:30:07;;;;;;;1999.90;999.90;;;14.80;99.90;;;;;;5081076;28;20409;-84
2021/08/27 06:32:33;;;;;;;1999.90;999.90;;;14.70;99.90;;;;;;5062458;28;20446;-84
2021/08/27 06:35:02;;;;;;;1999.90;999.90;;;14.80;99.90;;;;;;5080367;28;20402;-84
2021/08/27 06:40:15;;;;;;;1999.90;999.90;;;14.80;99.90;;;;;;5080608;28;20458;-84
2021/08/27 06:42:41;;;;;;;1999.90;999.90;;;14.90;99.90;;;;;;5080455;28;20428;-83
2021/08/27 06:45:08;;;;;;;1999.90;999.90;;;14.90;99.90;;;;;;5062114;28;20406;-84
2021/08/27 06:47:34;;;;;;;1999.90;999.90;;;14.90;99.90;;;;;;5080381;28;20447;-83
2021/08/27 06:50:00;;;;;;;1999.90;999.90;;;14.90;99.90;;;;;;5061947;28;20500;-84
2021/08/27 06:52:27;;;;;;;1999.90;999.90;;;15.00;99.90;;;;;;5080175;28;20413;-84
2021/08/27 06:54:52;;;;;;;1999.90;999.90;;;15.00;99.90;;;;;;5080434;28;20271;-83
2021/08/27 06:57:18;;;;;;;1999.90;999.90;;;15.10;99.90;;;;;;5079610;28;20477;-84
2021/08/27 06:59:44;;;;;;;1999.90;999.90;;;15.10;99.90;;;;;;5062307;28;20480;-84
2021/08/27 07:02:09;;;;;;;1999.90;999.90;;;15.20;99.90;;;;;;5079929;28;20184;-84
2021/08/27 07:04:35;;;;;;;1999.90;999.90;;;15.10;99.90;;;;;;5080344;28;20172;-83
2021/08/27 07:07:01;;;;;;;1999.90;999.90;;;15.10;99.90;;;;;;5061965;28;20196;-84
2021/08/27 07:09:27;;;;;;;1999.90;999.90;;;15.10;99.90;;;;;;5080113;28;20172;-83
2021/08/27 07:11:53;;;;;;;1999.90;999.90;;;15.10;99.90;;;;;;5080320;28;20254;-85
2021/08/27 07:14:19;;;;;;;1999.90;999.90;;;15.10;99.90;;;;;;5079630;28;20877;-83
2021/08/27 07:16:44;;;;;;;1999.90;999.90;;;15.10;99.90;;;;;;5079485;28;20233;-83
2021/08/27 07:19:10;;;;;;;1999.90;999.90;;;15.10;99.90;;;;;;5061511;28;20168;-84
2021/08/27 07:21:36;;;;;;;1999.90;999.90;;;15.10;99.90;;;;;;5079368;28;20635;-84
2021/08/27 07:24:01;;;;;;;1999.90;999.90;;;15.20;99.90;;;;;;5079456;28;20186;-85
2021/08/27 07:26:27;;;;;;;1999.90;999.90;;;15.10;99.90;;;;;;5078191;28;20164;-84
2021/08/27 07:28:52;;;;;;;1999.90;999.90;;;15.10;99.90;;;;;;5061975;28;20203;-84
2021/08/27 07:31:18;;;;;;;1999.90;999.90;;;15.10;99.90;;;;;;5078577;28;20187;-84
2021/08/27 07:33:44;;;;;;;1999.90;999.90;;;15.20;99.90;;;;;;5078923;28;20167;-84
2021/08/27 07:36:09;;;;;;;1999.90;999.90;;;15.20;99.90;;;;;;5060972;28;20227;-84
2021/08/27 07:38:35;;;;;;;1999.90;999.90;;;15.20;99.90;;;;;;5078846;28;20686;-84
2021/08/27 07:41:01;;;;;;;1999.90;999.90;;;15.30;99.90;;;;;;5078235;28;20161;-84
2021/08/27 07:43:26;;;;;;;1999.90;999.90;;;15.40;99.90;;;;;;5060804;28;20171;-84
2021/08/27 07:45:57;;;;;;;1999.90;999.90;;;15.40;99.90;;;;;;5061286;28;20178;-84
2021/08/27 07:48:24;;;;;;;1999.90;999.90;;;15.40;99.90;;;;;;5061219;28;20196;-84
2021/08/27 07:50:50;;;;;;;1999.90;999.90;;;15.40;99.90;;;;;;5079350;28;20406;-83
2021/08/27 07:53:15;;;;;;;1999.90;999.90;;;15.50;99.90;;;;;;5078614;28;20489;-84
2021/08/27 07:55:41;;;;;;;1999.90;999.90;;;15.60;99.90;;;;;;5079067;28;20259;-84
2021/08/27 07:58:07;;;;;;;1999.90;999.90;;;15.60;99.90;;;;;;5060971;28;20302;-84
2021/08/27 08:00:32;;;;;;;1999.90;999.90;;;15.60;99.90;;;;;;5060987;28;20165;-83
2021/08/27 08:02:58;;;;;;;1999.90;999.90;;;15.60;99.90;;;;;;5079111;28;20167;-83
2021/08/27 08:05:24;;;;;;;1999.90;999.90;;;15.60;99.90;;;;;;5079122;28;20172;-84
2021/08/27 08:07:50;;;;;;;1999.90;999.90;;;15.60;99.90;;;;;;5060820;28;20214;-84
2021/08/27 08:10:15;;;;;;;1999.90;999.90;;;15.60;99.90;;;;;;5079087;28;20524;-84
2021/08/27 08:12:41;;;;;;;1999.90;999.90;;;15.60;99.90;;;;;;5079360;28;20167;-82
2021/08/27 08:15:07;;;;;;;1999.90;999.90;;;15.50;99.90;;;;;;5074755;28;20173;-82
2021/08/27 08:17:33;;;;;;;1999.90;999.90;;;15.50;99.90;;;;;;5058252;28;20184;-83
2021/08/27 08:19:59;;;;;;;1999.90;999.90;;;15.40;99.90;;;;;;5077899;28;20395;-82
2021/08/27 08:22:25;;;;;;;1999.90;999.90;;;15.50;99.90;;;;;;5077625;28;20162;-82
2021/08/27 08:24:50;;;;;;;1999.90;999.90;;;15.50;99.90;;;;;;5078239;28;20398;-82
2021/08/27 08:27:16;;;;;;;1999.90;999.90;;;15.50;99.90;;;;;;5078576;28;20241;-83
2021/08/27 08:29:42;;;;;;;1999.90;999.90;;;15.50;99.90;;;;;;5078041;28;20180;-83
2021/08/27 08:32:08;;;;;;;1999.90;999.90;;;15.60;99.90;;;;;;5060569;28;20259;-83
2021/08/27 08:34:34;;;;;;;1999.90;999.90;;;15.60;99.90;;;;;;5060805;28;20902;-83
2021/08/27 08:36:59;;;;;;;1999.90;999.90;;;15.70;99.90;;;;;;5060028;28;20454;-83
2021/08/27 08:39:25;;;;;;;1999.90;999.90;;;16.00;99.90;;;;;;5077975;28;20170;-83
2021/08/27 08:41:51;;;;;;;1999.90;999.90;;;16.10;99.90;;;;;;5078496;28;20164;-82
2021/08/27 08:44:17;;;;;;;1999.90;999.90;;;16.30;99.90;;;;;;5078256;28;20208;-83
2021/08/27 08:46:45;;;;;;;1999.90;999.90;;;16.30;99.90;;;;;;5077994;28;20516;-83
2021/08/27 08:49:13;;;;;;;1999.90;999.90;;;16.30;99.90;;;;;;5060230;28;20420;-84
2021/08/27 08:51:44;;;;;;;1999.90;999.90;;;16.30;99.90;;;;;;5078245;28;20402;-83
2021/08/27 08:54:13;;;;;;;1999.90;999.90;;;16.30;99.90;;;;;;5077678;28;20396;-84
2021/08/27 08:56:42;;;;;;;1999.90;999.90;;;16.30;99.90;;;;;;5077973;28;20945;-84
2021/08/27 08:59:08;;;;;;;1999.90;999.90;;;16.10;99.90;;;;;;5078291;28;20415;-84
2021/08/27 09:01:33;;;;;;;1999.90;999.90;;;16.10;99.90;;;;;;5077998;28;20432;-84
2021/08/27 09:03:59;;;;;;;1999.90;999.90;;;16.00;99.90;;;;;;5078131;28;20412;-84
2021/08/27 09:06:25;;;;;;;1999.90;999.90;;;16.10;99.90;;;;;;5077679;28;20165;-83
2021/08/27 09:08:52;;;;;;;1999.90;999.90;;;16.30;99.90;;;;;;5078350;28;20581;-83
2021/08/27 09:11:25;;;;;;;1999.90;999.90;;;16.40;99.90;;;;;;5077726;28;20405;-83
2021/08/27 09:13:56;;;;;;;1999.90;999.90;;;16.60;99.90;;;;;;5060323;28;20815;-82
2021/08/27 09:16:27;;;;;;;1999.90;999.90;;;16.80;99.90;;;;;;5078332;28;20435;-83
2021/08/27 09:18:59;;;;;;;1999.90;999.90;;;16.90;99.90;;;;;;5061430;28;20403;-83
2021/08/27 09:21:45;;;;;;;1999.90;999.90;;;17.00;99.90;;;;;;5060271;28;20408;-84
2021/08/27 09:24:12;;;;;;;1999.90;999.90;;;17.00;99.90;;;;;;5078975;28;20389;-84
2021/08/27 09:26:38;;;;;;;1999.90;999.90;;;17.00;99.90;;;;;;5078120;28;20458;-84
2021/08/27 09:29:03;;;;;;;1999.90;999.90;;;17.10;99.90;;;;;;5077573;28;20875;-84
2021/08/27 09:31:38;;;;;;;1999.90;999.90;;;17.20;99.90;;;;;;5059252;28;20477;-83
2021/08/27 09:34:04;;;;;;;1999.90;999.90;;;17.50;99.90;;;;;;5059487;28;20188;-83
2021/08/27 09:36:31;;;;;;;1999.90;999.90;;;17.70;99.90;;;;;;5077641;28;20493;-83
2021/08/27 09:39:08;;;;;;;1999.90;999.90;;;17.60;99.90;;;;;;5077168;28;20413;-84
2021/08/27 09:41:35;;;;;;;1999.90;999.90;;;17.50;99.90;;;;;;5077496;28;20497;-84
2021/08/27 09:44:01;;;;;;;1999.90;999.90;;;17.50;99.90;;;;;;5077054;28;20405;-83
2021/08/27 09:46:45;;;;;;;1999.90;999.90;;;17.30;99.90;;;;;;5078138;28;20410;-82
2021/08/27 09:49:36;;;;;;;1999.90;999.90;;;17.10;99.90;;;;;;5062031;28;20406;-83
2021/08/27 09:52:10;;;;;;;1999.90;999.90;;;17.10;99.90;;;;;;5063136;28;20401;-83
2021/08/27 09:54:39;;;;;;;1999.90;999.90;;;17.00;99.90;;;;;;5081520;28;20894;-84
2021/08/27 09:57:11;;;;;;;1999.90;999.90;;;16.90;99.90;;;;;;5081045;28;20966;-84
2021/08/27 09:59:47;;;;;;;1999.90;999.90;;;16.90;99.90;;;;;;5063287;28;20421;-83
2021/08/27 10:02:43;;;;;;;1999.90;999.90;;;17.00;99.90;;;;;;5063264;28;20428;-84
2021/08/27 10:05:10;;;;;;;1999.90;999.90;;;17.00;99.90;;;;;;5080389;28;20429;-84
2021/08/27 10:07:42;;;;;;;1999.90;999.90;;;17.10;99.90;;;;;;5081393;28;20523;-84
2021/08/27 10:10:11;;;;;;;1999.90;999.90;;;17.30;99.90;;;;;;5063937;28;20794;-84
2021/08/27 10:12:41;;;;;;;1999.90;999.90;;;17.40;99.90;;;;;;5063178;28;20409;-83
2021/08/27 10:15:09;;;;;;;1999.90;999.90;;;17.30;99.90;;;;;;5063495;28;20416;-84
2021/08/27 10:17:37;;;;;;;1999.90;999.90;;;17.30;99.90;;;;;;5081104;28;20435;-84
2021/08/27 10:20:08;;;;;;;1999.90;999.90;;;17.60;99.90;;;;;;5062787;28;20417;-84
2021/08/27 10:22:40;;;;;;;1999.90;999.90;;;18.10;99.90;;;;;;5082055;28;20499;-84
2021/08/27 10:25:08;;;;;;;1999.90;999.90;;;18.50;99.90;;;;;;5063055;28;20475;-83
2021/08/27 10:27:35;;;;;;;1999.90;999.90;;;18.80;99.90;;;;;;5080816;28;20426;-84
2021/08/27 10:30:02;;;;;;;1999.90;999.90;;;18.80;99.90;;;;;;5080897;28;20406;-84
2021/08/27 10:32:40;;;;;;;1999.90;999.90;;;18.50;99.90;;;;;;5062292;28;20468;-83
2021/08/27 10:35:24;;;;;;;1999.90;999.90;;;18.20;99.90;;;;;;5062676;28;20417;-84
2021/08/27 10:37:54;;;;;;;1999.90;999.90;;;17.90;99.90;;;;;;5087568;22;20485;-84
2021/08/27 10:40:22;;;;;;;1999.90;999.90;;;17.60;99.90;;;;;;5062720;28;20467;-85
2021/08/27 10:42:52;;;;;;;1999.90;999.90;;;17.50;99.90;;;;;;5063959;28;20433;-85
2021/08/27 10:45:45;;;;;;;1999.90;999.90;;;17.60;99.90;;;;;;5083909;28;20398;-86
2021/08/27 10:48:20;;;;;;;1999.90;999.90;;;17.70;99.90;;;;;;5038255;28;20431;-86
2021/08/27 10:50:50;;;;;;;1999.90;999.90;;;17.80;99.90;;;;;;5062312;28;20385;-86
2021/08/27 10:53:32;;;;;;;1999.90;999.90;;;17.90;99.90;;;;;;5062800;28;20992;-86
2021/08/27 10:56:06;;;;;;;1999.90;999.90;;;18.10;99.90;;;;;;5045257;28;20455;-85
2021/08/27 10:58:40;;;;;;;1999.90;999.90;;;18.20;99.90;;;;;;5044789;28;20467;-85
2021/08/27 11:01:25;;;;;;;1999.90;999.90;;;18.10;99.90;;;;;;5063167;28;20410;-85
2021/08/27 11:04:17;;;;;;;1999.90;999.90;;;18.30;99.90;;;;;;5045169;28;20403;-85
2021/08/27 11:06:45;;;;;;;1999.90;999.90;;;18.50;99.90;;;;;;5063075;28;20483;-85
2021/08/27 11:09:15;;;;;;;1999.90;999.90;;;18.40;99.90;;;;;;5062127;28;20502;-86
2021/08/27 11:11:41;;;;;;;1999.90;999.90;;;18.50;99.90;;;;;;5062289;28;20422;-85
2021/08/27 11:14:21;;;;;;;1999.90;999.90;;;18.40;99.90;;;;;;5062822;28;20778;-85
2021/08/27 11:16:59;;;;;;;1999.90;999.90;;;18.50;99.90;;;;;;5045221;28;20693;-85
2021/08/27 11:19:46;;;;;;;1999.90;999.90;;;18.80;99.90;;;;;;5062261;28;20541;-84
2021/08/27 11:22:11;;;;;;;1999.90;999.90;;;19.20;99.90;;;;;;5062107;28;20469;-84
2021/08/27 11:24:42;;;;;;;1999.90;999.90;;;19.30;99.90;;;;;;5062703;28;20395;-85
2021/08/27 11:27:15;;;;;;;1999.90;999.90;;;19.30;99.90;;;;;;5062735;28;20737;-84
2021/08/27 11:29:45;;;;;;;1999.90;999.90;;;19.20;99.90;;;;;;5061880;28;20388;-84
2021/08/27 11:32:31;;;;;;;1999.90;999.90;;;19.10;99.90;;;;;;5061433;28;20506;-84
2021/08/27 11:35:06;;;;;;;1999.90;999.90;;;19.10;99.90;;;;;;5062021;28;20387;-84
2021/08/27 11:37:40;;;;;;;1999.90;999.90;;;19.50;99.90;;;;;;5061640;28;20823;-84
2021/08/27 11:40:09;;;;;;;1999.90;999.90;;;19.90;99.90;;;;;;5061565;28;20387;-84
2021/08/27 11:42:37;;;;;;;1999.90;999.90;;;20.30;99.90;;;;;;5043400;28;20408;-83
2021/08/27 11:45:10;;;;;;;1999.90;999.90;;;20.40;99.90;;;;;;5061081;28;20402;-84
2021/08/27 11:47:43;;;;;;;1999.90;999.90;;;20.50;99.90;;;;;;5060589;28;20506;-83
2021/08/27 11:50:23;;;;;;;1999.90;999.90;;;20.30;99.90;;;;;;5061108;28;20452;-84
2021/08/27 11:52:51;;;;;;;1999.90;999.90;;;20.10;99.90;;;;;;5043647;28;20415;-84
2021/08/27 11:55:18;;;;;;;1999.90;999.90;;;19.90;99.90;;;;;;5043386;28;20414;-84
2021/08/27 11:57:51;;;;;;;1999.90;999.90;;;19.50;99.90;;;;;;5060204;28;20428;-83
2021/08/27 12:03:14;;;;;;;1999.90;999.90;;;18.30;99.90;;;;;;5146539;22;20973;-88
2021/08/27 12:05:54;;;;;;;1999.90;999.90;;;17.90;99.90;;;;;;5039507;28;20402;-87
2021/08/27 12:08:27;;;;;;;1999.90;999.90;;;17.80;99.90;;;;;;5037862;28;20426;-87
2021/08/27 12:11:36;;;;;;;1999.90;999.90;;;17.90;99.90;;;;;;5053493;28;20387;-87
2021/08/27 12:14:14;;;;;;;1999.90;999.90;;;18.10;99.90;;;;;;5028233;28;20403;-87
2021/08/27 12:17:04;;;;;;;1999.90;999.90;;;18.30;99.90;;;;;;5035643;28;20467;-87
2021/08/27 12:20:00;;;;;;;1999.90;999.90;;;18.60;99.90;;;;;;5052703;28;20418;-87
2021/08/27 12:22:45;;;;;;;1999.90;999.90;;;19.00;99.90;;;;;;5035605;28;20402;-87
2021/08/27 12:25:37;;;;;;;1999.90;999.90;;;19.40;99.90;;;;;;5035839;28;20407;-87
2021/08/27 12:28:15;;;;;;;1999.90;999.90;;;19.70;99.90;;;;;;5035471;28;20430;-87
2021/08/27 12:30:53;;;;;;;1999.90;999.90;;;19.90;99.90;;;;;;5053254;28;20482;-87
2021/08/27 12:33:39;;;;;;;1999.90;999.90;;;20.10;99.90;;;;;;5053699;28;20892;-87
2021/08/27 12:36:34;;;;;;;1999.90;999.90;;;20.30;99.90;;;;;;5032325;28;20455;-87
2021/08/27 12:39:21;;;;;;;1999.90;999.90;;;20.30;99.90;;;;;;5053586;28;20748;-87
2021/08/27 12:42:19;;;;;;;1999.90;999.90;;;20.10;99.90;;;;;;5053057;28;20410;-87
2021/08/27 12:45:52;;;;;;;;;;;;;;;;;;;;;
2021/08/27 12:48:24;;;;;;;1999.90;999.90;;;18.60;99.90;;;;;;5034573;28;20954;-88
2021/08/27 12:50:58;;;;;;;1999.90;999.90;;;18.10;99.90;;;;;;5053006;28;20401;-87
2021/08/27 12:53:37;;;;;;;1999.90;999.90;;;18.10;99.90;;;;;;5052967;28;20396;-87
2021/08/27 12:59:13;;;;;;;1999.90;999.90;;;18.10;99.90;;;;;;5124477;22;20496;-87
2021/08/27 13:02:04;;;;;;;1999.90;999.90;;;18.40;99.90;;;;;;5038071;28;20873;-86
2021/08/27 13:04:43;;;;;;;1999.90;999.90;;;18.50;99.90;;;;;;5055226;28;20414;-86
2021/08/27 13:11:27;;;;;;;1999.90;999.90;;;18.90;99.90;;;;;;4971718;28;20999;-87
2021/08/27 13:14:26;;;;;;;;;;;;;;;;;;;;;
2021/08/27 13:17:26;;;;;;;1999.90;999.90;;;18.90;99.90;;;;;;5052204;28;20469;-87
2021/08/27 13:20:43;;;;;;;1999.90;999.90;;;19.10;99.90;;;;;;5034937;28;20419;-87
2021/08/27 13:23:48;;;;;;;1999.90;999.90;;;18.90;99.90;;;;;;5020333;28;20415;-88
2021/08/27 13:26:41;;;;;;;1999.90;999.90;;;18.60;99.90;;;;;;5007394;28;20418;-87
2021/08/27 13:29:18;;;;;;;1999.90;999.90;;;18.50;99.90;;;;;;4997623;28;20424;-87
2021/08/27 13:31:47;;;;;;;1999.90;999.90;;;18.30;99.90;;;;;;5015031;28;20389;-86
2021/08/27 13:34:13;;;;;;;1999.90;999.90;;;18.30;99.90;;;;;;5048343;28;20850;-87
2021/08/27 13:36:59;;;;;;;1999.90;999.90;;;18.20;99.90;;;;;;5055910;28;20545;-87
2021/08/27 13:39:51;;;;;;;1999.90;999.90;;;18.40;99.90;;;;;;5056532;28;20188;-87
2021/08/27 13:42:28;;;;;;;1999.90;999.90;;;18.50;99.90;;;;;;5056181;28;20406;-86
2021/08/27 13:45:01;;;;;;;1999.90;999.90;;;18.40;99.90;;;;;;5038275;28;20414;-86
2021/08/27 13:48:25;;;;;;;1999.90;999.90;;;18.40;99.90;;;;;;5056055;28;20426;-87
2021/08/27 13:51:22;;;;;;;1999.90;999.90;;;18.50;99.90;;;;;;4995025;28;20501;-88
2021/08/27 13:54:14;;;;;;;1999.90;999.90;;;18.80;99.90;;;;;;5047723;28;20421;-87
2021/08/27 13:56:57;;;;;;;1999.90;999.90;;;19.00;99.90;;;;;;5055890;28;20915;-87
2021/08/27 14:00:30;;;;;;;1999.90;999.90;;;19.30;99.90;;;;;;5056126;28;20431;-87
2021/08/27 14:03:27;;;;;;;1999.90;999.90;;;19.60;99.90;;;;;;5056057;28;20403;-88
2021/08/27 14:06:54;;;;;;;;;;;;;;;;;;;;;
2021/08/27 14:13:11;;;;;;;1999.90;999.90;;;20.20;99.90;;;;;;5013596;28;20407;-87
2021/08/27 14:32:20;;;;;;;1999.90;999.90;;;20.30;99.90;;;;;;4994537;28;20504;-89
2021/08/27 14:38:09;;;;;;;1999.90;999.90;;;19.70;99.90;;;;;;4886024;29;20539;-87
2021/08/27 14:40:42;;;;;;;1999.90;999.90;;;19.40;99.90;;;;;;4898070;29;20404;-86
2021/08/27 14:43:21;;;;;;;1999.90;999.90;;;19.10;99.90;;;;;;5028939;28;20914;-88
2021/08/27 14:45:47;;;;;;;1999.90;999.90;;;18.70;99.90;;;;;;5057119;28;20403;-87
2021/08/27 14:48:16;;;;;;;1999.90;999.90;;;18.30;99.90;;;;;;5074904;28;20488;-87
2021/08/27 14:51:36;;;;;;;1999.90;999.90;;;17.90;99.90;;;;;;5075158;28;20400;-89
2021/08/27 14:54:23;;;;;;;1999.90;999.90;;;17.60;99.90;;;;;;5074629;28;20399;-88
2021/08/27 14:56:49;;;;;;;1999.90;999.90;;;17.50;99.90;;;;;;5075036;28;20458;-87
2021/08/27 15:02:52;;;;;;;1999.90;999.90;;;17.20;99.90;;;;;;5074949;28;20373;-87
2021/08/27 15:05:38;;;;;;;1999.90;999.90;;;17.00;99.90;;;;;;5056023;28;20407;-86
2021/08/27 15:08:16;;;;;;;1999.90;999.90;;;16.70;99.90;;;;;;5056742;28;20195;-87
2021/08/27 15:10:55;;;;;;;;;;;;;;;;;;;;;
2021/08/27 15:13:52;;;;;;;1999.90;999.90;;;16.40;99.90;;;;;;5074634;28;20884;-87
2021/08/27 15:19:52;;;;;;;1999.90;999.90;;;16.50;99.90;;;;;;5129752;22;20498;-86
2021/08/27 15:22:20;;;;;;;1999.90;999.90;;;16.60;99.90;;;;;;5055510;28;20401;-86
2021/08/27 15:25:01;;;;;;;1999.90;999.90;;;16.70;99.90;;;;;;5101547;28;20403;-86
2021/08/27 15:27:42;;;;;;;1999.90;999.90;;;16.80;99.90;;;;;;5097496;22;21008;-85
2021/08/27 15:30:17;;;;;;;1999.90;999.90;;;16.90;99.90;;;;;;5085706;28;20437;-85
2021/08/27 15:32:52;;;;;;;1999.90;999.90;;;17.20;99.90;;;;;;5103843;28;20382;-85
2021/08/27 15:35:37;;;;;;;1999.90;999.90;;;17.40;99.90;;;;;;5103078;28;20456;-85
2021/08/27 15:38:03;;;;;;;1999.90;999.90;;;17.60;99.90;;;;;;5072725;28;20422;-85
2021/08/27 15:40:29;;;;;;;1999.90;999.90;;;18.10;99.90;;;;;;5082932;28;20746;-85
2021/08/27 15:42:55;;;;;;;1999.90;999.90;;;18.60;99.90;;;;;;5082219;28;20160;-85
2021/08/27 15:45:23;;;;;;;1999.90;999.90;;;19.20;99.90;;;;;;5080306;28;20160;-86
2021/08/27 15:47:48;;;;;;;1999.90;999.90;;;19.40;99.90;;;;;;5079042;28;20180;-85
2021/08/27 15:50:17;;;;;;;1999.90;999.90;;;19.50;99.90;;;;;;5077319;28;20394;-86
2021/08/27 15:52:53;;;;;;;1999.90;999.90;;;19.40;99.90;;;;;;5058825;28;20804;-85
2021/08/27 15:55:48;;;;;;;1999.90;999.90;;;19.20;99.90;;;;;;5067618;28;20465;-85
2021/08/27 15:58:17;;;;;;;1999.90;999.90;;;18.90;99.90;;;;;;5076143;28;20410;-85
2021/08/27 16:00:43;;;;;;;1999.90;999.90;;;18.60;99.90;;;;;;5081063;28;20409;-85
2021/08/27 16:03:34;;;;;;;1999.90;999.90;;;18.50;99.90;;;;;;5079463;28;20477;-86
2021/08/27 16:06:02;;;;;;;1999.90;999.90;;;18.20;99.90;;;;;;5080190;28;20641;-85
2021/08/27 16:08:28;;;;;;;1999.90;999.90;;;18.10;99.90;;;;;;5078023;28;20426;-87
2021/08/27 16:15:09;;;;;;;1999.90;999.90;;;17.70;99.90;;;;;;5011497;28;20244;-88
2021/08/27 16:18:38;;;;;;;;;;;;;;;;;;;;;
2021/08/27 16:25:49;;;;;;;1999.90;999.90;;;17.50;99.90;;;;;;4982520;28;20755;-87
2021/08/27 16:28:42;;;;;;;1999.90;999.90;;;17.40;99.90;;;;;;4991826;28;20454;-86
2021/08/27 16:42:34;;;;;;;1999.90;999.90;;;17.20;99.90;;;;;;4965543;28;20426;-87
2021/08/27 16:55:24;;;;;;;1999.90;999.90;;;16.40;99.90;;;;;;4922526;28;20420;-86
2021/08/27 16:58:41;;;;;;;1999.90;999.90;;;16.30;99.90;;;;;;4978438;28;20497;-85